シカゴ/オヘア の空港の天気 - METARとTAF

シカゴ・オヘア国際空港 ( KORD / ORD ) - アメリカ イリノイ州シカゴ
飛行場実況気象(Metar)
観測時間11/30 13:51 CST (11/30 19:51 UTC)
風向・風速北北西 10m/s 瞬間風速14m/s
視程10km以上
天気現象
全天の8割程度の雲 雲底高度 820m
全天を覆う雲 雲底高度 1160m
気温-0.6℃
湿度61%
気圧1015.4hPa
METARKORD 301951Z 33020G27KT 10SM BKN027 OVC038 M01/M07 A2997 RMK AO2 PK WND 32027/1945 SLP154 T10061072
過去の天気等 Google飛行場航空写真 Wunderground天気予報

過去48時間のMETAR

飛行場予報(TAF)
発表時間: 11/30 12:49 CST (11/30 18:49 UTC)
予報対象時間: 30日13時 CST ~ 1日18時 CST
風向・風速北 9m/s 瞬間風速 15m/s
視程10km以上
天気現象弱い雪
全天を覆う雲 雲底高度 760m
30日15時 CST から
風向・風速北北西 8m/s 瞬間風速 14m/s
視程10km以上
全天を覆う雲 雲底高度 1070m
1日4時 CST から
風向・風速北北西 6m/s 瞬間風速 9m/s
視程10km以上
少しの雲 雲底高度 1220m
1日16時 CST から
風向・風速西北西 6m/s
視程10km以上
なし
KORD 301849Z 3019/0124 35018G30KT P6SM -SN OVC025
FM302100 34016G28KT P6SM OVC035
FM011000 33011G17KT P6SM FEW040
FM012200 30011KT P6SM SKC